sensor_id;sensor_type;location;lat;lon;timestamp;P1;durP1;ratioP1;P2;durP2;ratioP2
11921;SDS011;6021;51.182;3.160;2022-07-09T00:00:31;10.93;;;9.93;;
11921;SDS011;6021;51.182;3.160;2022-07-09T00:02:59;11.93;;;10.70;;
11921;SDS011;6021;51.182;3.160;2022-07-09T00:05:27;14.13;;;12.73;;
11921;SDS011;6021;51.182;3.160;2022-07-09T00:07:56;12.03;;;10.93;;
11921;SDS011;6021;51.182;3.160;2022-07-09T00:10:24;15.73;;;14.10;;
11921;SDS011;6021;51.182;3.160;2022-07-09T00:12:52;12.87;;;11.63;;
11921;SDS011;6021;51.182;3.160;2022-07-09T00:15:21;12.03;;;10.83;;
11921;SDS011;6021;51.182;3.160;2022-07-09T00:17:51;12.40;;;11.40;;
11921;SDS011;6021;51.182;3.160;2022-07-09T00:20:19;14.77;;;13.27;;
11921;SDS011;6021;51.182;3.160;2022-07-09T00:22:48;14.67;;;13.37;;
11921;SDS011;6021;51.182;3.160;2022-07-09T00:25:16;17.10;;;15.50;;
11921;SDS011;6021;51.182;3.160;2022-07-09T00:27:45;14.40;;;13.13;;
11921;SDS011;6021;51.182;3.160;2022-07-09T00:30:13;15.47;;;14.00;;
11921;SDS011;6021;51.182;3.160;2022-07-09T00:32:42;16.80;;;15.23;;
11921;SDS011;6021;51.182;3.160;2022-07-09T00:38:01;20.63;;;18.60;;
11921;SDS011;6021;51.182;3.160;2022-07-09T00:40:29;18.13;;;16.33;;
11921;SDS011;6021;51.182;3.160;2022-07-09T00:42:58;19.13;;;17.03;;
11921;SDS011;6021;51.182;3.160;2022-07-09T00:45:26;18.47;;;16.67;;
11921;SDS011;6021;51.182;3.160;2022-07-09T00:47:54;17.00;;;15.17;;
11921;SDS011;6021;51.182;3.160;2022-07-09T00:50:23;16.03;;;14.53;;
11921;SDS011;6021;51.182;3.160;2022-07-09T00:52:51;19.53;;;17.50;;
11921;SDS011;6021;51.182;3.160;2022-07-09T00:55:20;18.23;;;16.53;;
11921;SDS011;6021;51.182;3.160;2022-07-09T00:57:48;20.13;;;18.07;;
11921;SDS011;6021;51.182;3.160;2022-07-09T01:00:17;18.10;;;16.40;;
11921;SDS011;6021;51.182;3.160;2022-07-09T01:02:45;22.93;;;20.50;;
11921;SDS011;6021;51.182;3.160;2022-07-09T01:05:16;19.93;;;17.93;;
11921;SDS011;6021;51.182;3.160;2022-07-09T01:07:44;24.53;;;21.97;;
11921;SDS011;6021;51.182;3.160;2022-07-09T01:10:13;20.60;;;18.57;;
11921;SDS011;6021;51.182;3.160;2022-07-09T01:12:42;19.67;;;17.60;;
11921;SDS011;6021;51.182;3.160;2022-07-09T01:15:10;15.73;;;14.30;;
11921;SDS011;6021;51.182;3.160;2022-07-09T01:17:44;19.80;;;17.73;;
11921;SDS011;6021;51.182;3.160;2022-07-09T01:20:08;20.77;;;18.57;;
11921;SDS011;6021;51.182;3.160;2022-07-09T01:22:38;21.33;;;19.17;;
11921;SDS011;6021;51.182;3.160;2022-07-09T01:25:08;23.03;;;20.63;;
11921;SDS011;6021;51.182;3.160;2022-07-09T01:27:38;19.87;;;17.87;;
11921;SDS011;6021;51.182;3.160;2022-07-09T01:30:06;22.13;;;19.83;;
11921;SDS011;6021;51.182;3.160;2022-07-09T01:32:35;24.90;;;22.30;;
11921;SDS011;6021;51.182;3.160;2022-07-09T01:35:04;26.17;;;23.57;;
11921;SDS011;6021;51.182;3.160;2022-07-09T01:37:33;25.50;;;23.07;;
11921;SDS011;6021;51.182;3.160;2022-07-09T01:40:01;25.37;;;22.97;;
11921;SDS011;6021;51.182;3.160;2022-07-09T01:42:29;24.80;;;22.33;;
11921;SDS011;6021;51.182;3.160;2022-07-09T01:44:58;25.90;;;22.97;;
11921;SDS011;6021;51.182;3.160;2022-07-09T01:47:26;24.73;;;22.27;;
11921;SDS011;6021;51.182;3.160;2022-07-09T01:49:54;30.20;;;27.07;;
11921;SDS011;6021;51.182;3.160;2022-07-09T01:52:23;30.77;;;27.47;;
11921;SDS011;6021;51.182;3.160;2022-07-09T01:54:52;27.20;;;23.90;;
11921;SDS011;6021;51.182;3.160;2022-07-09T01:57:20;28.80;;;25.77;;
11921;SDS011;6021;51.182;3.160;2022-07-09T01:59:48;28.13;;;25.10;;
11921;SDS011;6021;51.182;3.160;2022-07-09T02:02:17;26.50;;;23.87;;
11921;SDS011;6021;51.182;3.160;2022-07-09T02:04:46;25.87;;;23.27;;
11921;SDS011;6021;51.182;3.160;2022-07-09T02:07:15;27.80;;;25.00;;
11921;SDS011;6021;51.182;3.160;2022-07-09T02:09:43;27.67;;;24.77;;
11921;SDS011;6021;51.182;3.160;2022-07-09T02:12:12;28.60;;;25.70;;
11921;SDS011;6021;51.182;3.160;2022-07-09T02:14:40;29.10;;;26.10;;
11921;SDS011;6021;51.182;3.160;2022-07-09T02:17:08;26.73;;;23.77;;
11921;SDS011;6021;51.182;3.160;2022-07-09T02:22:32;26.07;;;22.80;;
11921;SDS011;6021;51.182;3.160;2022-07-09T02:25:00;26.10;;;23.40;;
11921;SDS011;6021;51.182;3.160;2022-07-09T02:27:29;26.20;;;23.57;;
11921;SDS011;6021;51.182;3.160;2022-07-09T02:29:57;25.37;;;22.73;;
11921;SDS011;6021;51.182;3.160;2022-07-09T02:32:25;27.83;;;24.83;;
11921;SDS011;6021;51.182;3.160;2022-07-09T02:34:54;29.50;;;25.53;;
11921;SDS011;6021;51.182;3.160;2022-07-09T02:37:22;28.67;;;25.57;;
11921;SDS011;6021;51.182;3.160;2022-07-09T02:39:50;26.10;;;23.47;;
11921;SDS011;6021;51.182;3.160;2022-07-09T02:42:19;24.03;;;21.53;;
11921;SDS011;6021;51.182;3.160;2022-07-09T02:44:47;27.07;;;24.27;;
11921;SDS011;6021;51.182;3.160;2022-07-09T02:47:15;23.17;;;20.93;;
11921;SDS011;6021;51.182;3.160;2022-07-09T02:49:44;21.17;;;18.97;;
11921;SDS011;6021;51.182;3.160;2022-07-09T02:52:12;19.83;;;17.80;;
11921;SDS011;6021;51.182;3.160;2022-07-09T02:54:41;26.17;;;23.47;;
11921;SDS011;6021;51.182;3.160;2022-07-09T02:57:09;31.30;;;28.33;;
11921;SDS011;6021;51.182;3.160;2022-07-09T02:59:38;29.37;;;26.27;;
11921;SDS011;6021;51.182;3.160;2022-07-09T03:02:06;30.87;;;27.63;;
11921;SDS011;6021;51.182;3.160;2022-07-09T03:04:35;35.77;;;32.13;;
11921;SDS011;6021;51.182;3.160;2022-07-09T03:07:04;36.73;;;32.90;;
11921;SDS011;6021;51.182;3.160;2022-07-09T03:09:32;33.97;;;30.47;;
11921;SDS011;6021;51.182;3.160;2022-07-09T03:12:00;33.57;;;30.13;;
11921;SDS011;6021;51.182;3.160;2022-07-09T03:14:29;29.73;;;26.73;;
11921;SDS011;6021;51.182;3.160;2022-07-09T03:16:57;29.53;;;26.63;;
11921;SDS011;6021;51.182;3.160;2022-07-09T03:19:25;30.83;;;27.63;;
11921;SDS011;6021;51.182;3.160;2022-07-09T03:24:42;33.50;;;30.10;;
11921;SDS011;6021;51.182;3.160;2022-07-09T03:27:10;27.07;;;24.37;;
11921;SDS011;6021;51.182;3.160;2022-07-09T03:29:38;35.00;;;31.50;;
11921;SDS011;6021;51.182;3.160;2022-07-09T03:32:07;32.33;;;29.00;;
11921;SDS011;6021;51.182;3.160;2022-07-09T03:34:35;28.60;;;25.90;;
11921;SDS011;6021;51.182;3.160;2022-07-09T03:37:04;27.53;;;24.93;;
11921;SDS011;6021;51.182;3.160;2022-07-09T03:39:32;28.13;;;25.43;;
11921;SDS011;6021;51.182;3.160;2022-07-09T03:42:01;33.87;;;30.53;;
11921;SDS011;6021;51.182;3.160;2022-07-09T03:44:29;38.03;;;34.33;;
11921;SDS011;6021;51.182;3.160;2022-07-09T03:46:57;38.70;;;34.57;;
11921;SDS011;6021;51.182;3.160;2022-07-09T03:49:26;36.17;;;32.63;;
11921;SDS011;6021;51.182;3.160;2022-07-09T03:51:55;37.57;;;33.87;;
11921;SDS011;6021;51.182;3.160;2022-07-09T03:54:23;34.60;;;31.27;;
11921;SDS011;6021;51.182;3.160;2022-07-09T03:56:52;39.90;;;36.20;;
11921;SDS011;6021;51.182;3.160;2022-07-09T03:59:21;41.87;;;37.87;;
11921;SDS011;6021;51.182;3.160;2022-07-09T04:01:49;44.90;;;40.30;;
11921;SDS011;6021;51.182;3.160;2022-07-09T04:04:17;46.53;;;41.90;;
11921;SDS011;6021;51.182;3.160;2022-07-09T04:06:46;53.67;;;48.20;;
11921;SDS011;6021;51.182;3.160;2022-07-09T04:09:14;51.73;;;46.53;;
11921;SDS011;6021;51.182;3.160;2022-07-09T04:11:42;52.43;;;47.33;;
11921;SDS011;6021;51.182;3.160;2022-07-09T04:14:11;48.13;;;43.13;;
11921;SDS011;6021;51.182;3.160;2022-07-09T04:16:40;51.50;;;46.20;;
11921;SDS011;6021;51.182;3.160;2022-07-09T04:19:09;46.47;;;41.87;;
11921;SDS011;6021;51.182;3.160;2022-07-09T04:21:37;49.07;;;44.07;;
11921;SDS011;6021;51.182;3.160;2022-07-09T04:24:06;42.53;;;38.43;;
11921;SDS011;6021;51.182;3.160;2022-07-09T04:26:34;53.93;;;48.33;;
11921;SDS011;6021;51.182;3.160;2022-07-09T04:29:03;50.87;;;46.00;;
11921;SDS011;6021;51.182;3.160;2022-07-09T04:31:31;49.70;;;44.87;;
11921;SDS011;6021;51.182;3.160;2022-07-09T04:33:59;42.20;;;38.23;;
11921;SDS011;6021;51.182;3.160;2022-07-09T04:36:28;46.70;;;42.23;;
11921;SDS011;6021;51.182;3.160;2022-07-09T04:38:57;47.40;;;43.00;;
11921;SDS011;6021;51.182;3.160;2022-07-09T04:41:26;52.37;;;47.40;;
11921;SDS011;6021;51.182;3.160;2022-07-09T04:43:55;43.87;;;39.87;;
11921;SDS011;6021;51.182;3.160;2022-07-09T04:46:23;57.90;;;52.37;;
11921;SDS011;6021;51.182;3.160;2022-07-09T04:48:53;52.33;;;47.13;;
11921;SDS011;6021;51.182;3.160;2022-07-09T04:51:22;52.97;;;47.97;;
11921;SDS011;6021;51.182;3.160;2022-07-09T04:53:50;53.23;;;48.20;;
11921;SDS011;6021;51.182;3.160;2022-07-09T04:56:18;46.93;;;42.50;;
11921;SDS011;6021;51.182;3.160;2022-07-09T04:58:47;59.23;;;53.73;;
11921;SDS011;6021;51.182;3.160;2022-07-09T05:01:22;48.07;;;43.67;;
11921;SDS011;6021;51.182;3.160;2022-07-09T05:03:50;54.00;;;49.20;;
11921;SDS011;6021;51.182;3.160;2022-07-09T05:06:19;59.37;;;53.77;;
11921;SDS011;6021;51.182;3.160;2022-07-09T05:08:47;53.17;;;48.17;;
11921;SDS011;6021;51.182;3.160;2022-07-09T05:11:16;45.63;;;41.33;;
11921;SDS011;6021;51.182;3.160;2022-07-09T05:13:45;47.27;;;42.50;;
11921;SDS011;6021;51.182;3.160;2022-07-09T05:16:14;44.23;;;40.07;;
11921;SDS011;6021;51.182;3.160;2022-07-09T05:18:42;44.93;;;40.80;;
11921;SDS011;6021;51.182;3.160;2022-07-09T05:21:10;45.13;;;40.93;;
11921;SDS011;6021;51.182;3.160;2022-07-09T05:23:39;42.57;;;38.47;;
11921;SDS011;6021;51.182;3.160;2022-07-09T05:26:07;49.17;;;44.47;;
11921;SDS011;6021;51.182;3.160;2022-07-09T05:28:35;42.93;;;38.80;;
11921;SDS011;6021;51.182;3.160;2022-07-09T05:31:04;46.83;;;42.10;;
11921;SDS011;6021;51.182;3.160;2022-07-09T05:33:33;41.73;;;37.73;;
11921;SDS011;6021;51.182;3.160;2022-07-09T05:36:01;43.03;;;38.87;;
11921;SDS011;6021;51.182;3.160;2022-07-09T05:38:30;41.70;;;37.90;;
11921;SDS011;6021;51.182;3.160;2022-07-09T05:40:59;45.40;;;41.00;;
11921;SDS011;6021;51.182;3.160;2022-07-09T05:43:27;43.70;;;39.57;;
11921;SDS011;6021;51.182;3.160;2022-07-09T05:45:55;45.43;;;40.77;;
11921;SDS011;6021;51.182;3.160;2022-07-09T05:48:23;37.03;;;33.30;;
11921;SDS011;6021;51.182;3.160;2022-07-09T05:50:52;46.60;;;41.83;;
11921;SDS011;6021;51.182;3.160;2022-07-09T05:53:21;37.60;;;33.73;;
11921;SDS011;6021;51.182;3.160;2022-07-09T05:55:49;43.97;;;39.77;;
11921;SDS011;6021;51.182;3.160;2022-07-09T05:58:18;39.17;;;35.37;;
11921;SDS011;6021;51.182;3.160;2022-07-09T06:00:47;43.90;;;39.70;;
11921;SDS011;6021;51.182;3.160;2022-07-09T06:03:16;41.73;;;37.67;;
11921;SDS011;6021;51.182;3.160;2022-07-09T06:05:44;34.20;;;30.80;;
11921;SDS011;6021;51.182;3.160;2022-07-09T06:08:12;39.90;;;35.83;;
11921;SDS011;6021;51.182;3.160;2022-07-09T06:10:41;39.53;;;35.63;;
11921;SDS011;6021;51.182;3.160;2022-07-09T06:13:09;45.20;;;40.53;;
11921;SDS011;6021;51.182;3.160;2022-07-09T06:15:38;41.47;;;37.30;;
11921;SDS011;6021;51.182;3.160;2022-07-09T06:18:07;41.43;;;37.27;;
11921;SDS011;6021;51.182;3.160;2022-07-09T06:20:35;40.07;;;36.10;;
11921;SDS011;6021;51.182;3.160;2022-07-09T06:23:03;30.60;;;27.57;;
11921;SDS011;6021;51.182;3.160;2022-07-09T06:25:32;38.70;;;34.83;;
11921;SDS011;6021;51.182;3.160;2022-07-09T06:28:00;40.27;;;36.47;;
11921;SDS011;6021;51.182;3.160;2022-07-09T06:30:29;31.83;;;28.73;;
11921;SDS011;6021;51.182;3.160;2022-07-09T06:32:57;34.00;;;30.70;;
11921;SDS011;6021;51.182;3.160;2022-07-09T06:35:26;31.10;;;28.00;;
11921;SDS011;6021;51.182;3.160;2022-07-09T06:37:54;32.63;;;29.43;;
11921;SDS011;6021;51.182;3.160;2022-07-09T06:40:23;30.77;;;27.83;;
11921;SDS011;6021;51.182;3.160;2022-07-09T06:42:51;38.40;;;34.60;;
11921;SDS011;6021;51.182;3.160;2022-07-09T06:45:20;36.73;;;33.07;;
11921;SDS011;6021;51.182;3.160;2022-07-09T06:47:48;39.07;;;35.13;;
11921;SDS011;6021;51.182;3.160;2022-07-09T06:50:16;31.40;;;28.23;;
11921;SDS011;6021;51.182;3.160;2022-07-09T06:52:45;41.50;;;35.90;;
11921;SDS011;6021;51.182;3.160;2022-07-09T06:55:13;35.83;;;32.23;;
11921;SDS011;6021;51.182;3.160;2022-07-09T06:57:41;32.80;;;29.40;;
11921;SDS011;6021;51.182;3.160;2022-07-09T07:00:10;28.27;;;25.30;;
11921;SDS011;6021;51.182;3.160;2022-07-09T07:02:38;25.03;;;22.53;;
11921;SDS011;6021;51.182;3.160;2022-07-09T07:05:07;21.80;;;19.60;;
11921;SDS011;6021;51.182;3.160;2022-07-09T07:07:36;20.70;;;18.70;;
11921;SDS011;6021;51.182;3.160;2022-07-09T07:10:04;16.10;;;14.50;;
11921;SDS011;6021;51.182;3.160;2022-07-09T07:12:32;14.13;;;12.53;;
11921;SDS011;6021;51.182;3.160;2022-07-09T07:15:01;10.30;;;8.30;;
11921;SDS011;6021;51.182;3.160;2022-07-09T07:17:29;10.10;;;7.90;;
11921;SDS011;6021;51.182;3.160;2022-07-09T07:19:59;4.83;;;3.90;;
11921;SDS011;6021;51.182;3.160;2022-07-09T07:22:28;4.17;;;3.33;;
11921;SDS011;6021;51.182;3.160;2022-07-09T07:24:56;4.43;;;3.30;;
11921;SDS011;6021;51.182;3.160;2022-07-09T07:27:24;3.33;;;2.83;;
11921;SDS011;6021;51.182;3.160;2022-07-09T07:29:53;4.03;;;3.00;;
11921;SDS011;6021;51.182;3.160;2022-07-09T07:32:21;2.93;;;2.63;;
11921;SDS011;6021;51.182;3.160;2022-07-09T07:34:49;3.20;;;2.30;;
11921;SDS011;6021;51.182;3.160;2022-07-09T07:37:18;3.13;;;2.10;;
11921;SDS011;6021;51.182;3.160;2022-07-09T07:39:46;1.70;;;1.60;;
11921;SDS011;6021;51.182;3.160;2022-07-09T07:42:14;1.70;;;1.50;;
11921;SDS011;6021;51.182;3.160;2022-07-09T07:44:43;2.35;;;1.80;;
11921;SDS011;6021;51.182;3.160;2022-07-09T07:47:11;2.50;;;1.70;;
11921;SDS011;6021;51.182;3.160;2022-07-09T07:49:40;1.70;;;1.50;;
11921;SDS011;6021;51.182;3.160;2022-07-09T07:52:08;2.83;;;1.60;;
11921;SDS011;6021;51.182;3.160;2022-07-09T07:54:36;2.37;;;1.73;;
11921;SDS011;6021;51.182;3.160;2022-07-09T07:57:05;2.67;;;1.60;;
11921;SDS011;6021;51.182;3.160;2022-07-09T07:59:33;2.20;;;1.50;;
11921;SDS011;6021;51.182;3.160;2022-07-09T08:02:02;1.90;;;1.20;;
11921;SDS011;6021;51.182;3.160;2022-07-09T08:04:30;2.33;;;1.30;;
11921;SDS011;6021;51.182;3.160;2022-07-09T08:06:58;1.73;;;1.30;;
11921;SDS011;6021;51.182;3.160;2022-07-09T08:09:27;2.07;;;1.30;;
11921;SDS011;6021;51.182;3.160;2022-07-09T08:11:56;2.20;;;1.40;;
11921;SDS011;6021;51.182;3.160;2022-07-09T08:14:24;2.03;;;1.40;;
11921;SDS011;6021;51.182;3.160;2022-07-09T08:16:53;2.47;;;1.47;;
11921;SDS011;6021;51.182;3.160;2022-07-09T08:19:21;1.87;;;1.40;;
11921;SDS011;6021;51.182;3.160;2022-07-09T08:21:49;2.90;;;1.40;;
11921;SDS011;6021;51.182;3.160;2022-07-09T08:24:18;2.50;;;1.47;;
11921;SDS011;6021;51.182;3.160;2022-07-09T08:26:46;2.77;;;1.20;;
11921;SDS011;6021;51.182;3.160;2022-07-09T08:29:14;2.07;;;1.23;;
11921;SDS011;6021;51.182;3.160;2022-07-09T08:31:43;3.50;;;1.50;;
11921;SDS011;6021;51.182;3.160;2022-07-09T08:34:11;3.70;;;1.53;;
11921;SDS011;6021;51.182;3.160;2022-07-09T08:36:39;3.60;;;1.30;;
11921;SDS011;6021;51.182;3.160;2022-07-09T08:39:08;2.83;;;1.67;;
11921;SDS011;6021;51.182;3.160;2022-07-09T08:41:36;4.70;;;1.50;;
11921;SDS011;6021;51.182;3.160;2022-07-09T08:44:05;2.40;;;1.20;;
11921;SDS011;6021;51.182;3.160;2022-07-09T08:46:36;2.13;;;1.30;;
11921;SDS011;6021;51.182;3.160;2022-07-09T08:49:06;2.40;;;1.30;;
11921;SDS011;6021;51.182;3.160;2022-07-09T08:51:35;1.93;;;1.30;;
11921;SDS011;6021;51.182;3.160;2022-07-09T08:54:03;2.07;;;1.17;;
11921;SDS011;6021;51.182;3.160;2022-07-09T08:56:35;2.53;;;1.30;;
11921;SDS011;6021;51.182;3.160;2022-07-09T08:59:05;2.00;;;1.30;;
11921;SDS011;6021;51.182;3.160;2022-07-09T09:01:34;2.23;;;1.40;;
11921;SDS011;6021;51.182;3.160;2022-07-09T09:04:02;3.50;;;1.33;;
11921;SDS011;6021;51.182;3.160;2022-07-09T09:06:35;3.20;;;1.30;;
11921;SDS011;6021;51.182;3.160;2022-07-09T09:09:16;1.27;;;1.17;;
11921;SDS011;6021;51.182;3.160;2022-07-09T09:11:37;1.83;;;1.37;;
11921;SDS011;6021;51.182;3.160;2022-07-09T09:14:05;3.20;;;1.33;;
11921;SDS011;6021;51.182;3.160;2022-07-09T09:16:40;1.20;;;1.10;;
11921;SDS011;6021;51.182;3.160;2022-07-09T09:19:05;3.33;;;1.30;;
11921;SDS011;6021;51.182;3.160;2022-07-09T09:21:33;2.93;;;1.40;;
11921;SDS011;6021;51.182;3.160;2022-07-09T09:24:04;3.73;;;1.67;;
11921;SDS011;6021;51.182;3.160;2022-07-09T09:26:33;1.33;;;1.23;;
11921;SDS011;6021;51.182;3.160;2022-07-09T09:29:03;1.87;;;1.40;;
11921;SDS011;6021;51.182;3.160;2022-07-09T09:31:35;3.47;;;1.67;;
11921;SDS011;6021;51.182;3.160;2022-07-09T09:34:13;2.93;;;1.60;;
11921;SDS011;6021;51.182;3.160;2022-07-09T09:36:43;2.43;;;1.30;;
11921;SDS011;6021;51.182;3.160;2022-07-09T09:41:47;1.70;;;1.50;;
11921;SDS011;6021;51.182;3.160;2022-07-09T09:44:22;1.50;;;1.23;;
11921;SDS011;6021;51.182;3.160;2022-07-09T09:46:53;2.33;;;1.30;;
11921;SDS011;6021;51.182;3.160;2022-07-09T09:49:23;1.63;;;1.20;;
11921;SDS011;6021;51.182;3.160;2022-07-09T09:54:41;2.83;;;1.40;;
11921;SDS011;6021;51.182;3.160;2022-07-09T09:57:13;2.77;;;1.50;;
11921;SDS011;6021;51.182;3.160;2022-07-09T09:59:44;1.40;;;1.30;;
11921;SDS011;6021;51.182;3.160;2022-07-09T10:02:13;1.40;;;1.20;;
11921;SDS011;6021;51.182;3.160;2022-07-09T10:04:42;2.57;;;1.40;;
11921;SDS011;6021;51.182;3.160;2022-07-09T10:07:13;1.73;;;1.20;;
11921;SDS011;6021;51.182;3.160;2022-07-09T10:09:51;2.17;;;1.30;;
11921;SDS011;6021;51.182;3.160;2022-07-09T10:15:21;1.30;;;1.20;;
11921;SDS011;6021;51.182;3.160;2022-07-09T10:17:52;2.83;;;1.63;;
11921;SDS011;6021;51.182;3.160;2022-07-09T10:20:42;2.13;;;1.50;;
11921;SDS011;6021;51.182;3.160;2022-07-09T10:23:00;2.30;;;1.50;;
11921;SDS011;6021;51.182;3.160;2022-07-09T10:25:29;2.70;;;1.60;;
11921;SDS011;6021;51.182;3.160;2022-07-09T10:27:59;1.90;;;1.70;;
11921;SDS011;6021;51.182;3.160;2022-07-09T10:30:28;1.90;;;1.47;;
11921;SDS011;6021;51.182;3.160;2022-07-09T10:35:39;2.80;;;1.53;;
11921;SDS011;6021;51.182;3.160;2022-07-09T10:38:08;1.97;;;1.67;;
11921;SDS011;6021;51.182;3.160;2022-07-09T10:40:43;2.23;;;1.40;;
11921;SDS011;6021;51.182;3.160;2022-07-09T10:43:11;2.33;;;1.80;;
11921;SDS011;6021;51.182;3.160;2022-07-09T10:45:41;3.63;;;1.67;;
11921;SDS011;6021;51.182;3.160;2022-07-09T10:48:12;2.03;;;1.60;;
11921;SDS011;6021;51.182;3.160;2022-07-09T10:50:46;2.77;;;1.83;;
11921;SDS011;6021;51.182;3.160;2022-07-09T10:53:13;2.63;;;1.80;;
11921;SDS011;6021;51.182;3.160;2022-07-09T10:55:44;3.67;;;1.93;;
11921;SDS011;6021;51.182;3.160;2022-07-09T10:58:16;3.03;;;1.90;;
11921;SDS011;6021;51.182;3.160;2022-07-09T11:00:54;3.13;;;2.20;;
11921;SDS011;6021;51.182;3.160;2022-07-09T11:03:31;3.93;;;1.90;;
11921;SDS011;6021;51.182;3.160;2022-07-09T11:05:57;2.40;;;1.90;;
11921;SDS011;6021;51.182;3.160;2022-07-09T11:08:26;3.70;;;1.90;;
11921;SDS011;6021;51.182;3.160;2022-07-09T11:10:54;1.80;;;1.70;;
11921;SDS011;6021;51.182;3.160;2022-07-09T11:13:23;3.03;;;1.60;;
11921;SDS011;6021;51.182;3.160;2022-07-09T11:15:58;2.00;;;1.53;;
11921;SDS011;6021;51.182;3.160;2022-07-09T11:18:28;2.60;;;1.67;;
11921;SDS011;6021;51.182;3.160;2022-07-09T11:20:57;3.13;;;1.50;;
11921;SDS011;6021;51.182;3.160;2022-07-09T11:23:25;2.03;;;1.30;;
11921;SDS011;6021;51.182;3.160;2022-07-09T11:25:54;1.40;;;1.30;;
11921;SDS011;6021;51.182;3.160;2022-07-09T11:28:25;1.70;;;1.30;;
11921;SDS011;6021;51.182;3.160;2022-07-09T11:31:02;3.00;;;1.40;;
11921;SDS011;6021;51.182;3.160;2022-07-09T11:33:27;3.27;;;1.60;;
11921;SDS011;6021;51.182;3.160;2022-07-09T11:35:57;2.80;;;1.50;;
11921;SDS011;6021;51.182;3.160;2022-07-09T11:38:26;2.67;;;1.40;;
11921;SDS011;6021;51.182;3.160;2022-07-09T11:41:00;1.73;;;1.50;;
11921;SDS011;6021;51.182;3.160;2022-07-09T11:43:29;1.93;;;1.23;;
11921;SDS011;6021;51.182;3.160;2022-07-09T11:45:57;1.77;;;1.10;;
11921;SDS011;6021;51.182;3.160;2022-07-09T11:48:26;3.23;;;1.00;;
11921;SDS011;6021;51.182;3.160;2022-07-09T11:50:54;3.10;;;1.20;;
11921;SDS011;6021;51.182;3.160;2022-07-09T11:53:23;2.77;;;1.10;;
11921;SDS011;6021;51.182;3.160;2022-07-09T11:56:02;1.87;;;1.10;;
11921;SDS011;6021;51.182;3.160;2022-07-09T11:58:31;1.10;;;1.00;;
11921;SDS011;6021;51.182;3.160;2022-07-09T12:00:59;3.87;;;1.20;;
11921;SDS011;6021;51.182;3.160;2022-07-09T12:03:29;1.67;;;1.20;;
11921;SDS011;6021;51.182;3.160;2022-07-09T12:05:57;1.43;;;1.20;;
11921;SDS011;6021;51.182;3.160;2022-07-09T12:08:29;1.40;;;1.10;;
11921;SDS011;6021;51.182;3.160;2022-07-09T12:10:59;1.60;;;1.20;;
11921;SDS011;6021;51.182;3.160;2022-07-09T12:13:27;1.60;;;1.20;;
11921;SDS011;6021;51.182;3.160;2022-07-09T12:15:56;1.57;;;1.10;;
11921;SDS011;6021;51.182;3.160;2022-07-09T12:18:28;2.20;;;1.10;;
11921;SDS011;6021;51.182;3.160;2022-07-09T12:20:56;1.30;;;0.90;;
11921;SDS011;6021;51.182;3.160;2022-07-09T12:23:24;1.90;;;1.10;;
11921;SDS011;6021;51.182;3.160;2022-07-09T12:25:53;1.50;;;1.10;;
11921;SDS011;6021;51.182;3.160;2022-07-09T12:28:21;1.90;;;1.20;;
11921;SDS011;6021;51.182;3.160;2022-07-09T12:30:50;1.95;;;1.22;;
11921;SDS011;6021;51.182;3.160;2022-07-09T12:33:18;2.57;;;1.40;;
11921;SDS011;6021;51.182;3.160;2022-07-09T12:35:47;2.77;;;1.50;;
11921;SDS011;6021;51.182;3.160;2022-07-09T12:38:16;3.00;;;1.43;;
11921;SDS011;6021;51.182;3.160;2022-07-09T12:40:45;2.00;;;1.40;;
11921;SDS011;6021;51.182;3.160;2022-07-09T12:43:13;3.83;;;1.50;;
11921;SDS011;6021;51.182;3.160;2022-07-09T12:45:41;2.17;;;1.60;;
11921;SDS011;6021;51.182;3.160;2022-07-09T12:48:10;3.27;;;1.50;;
11921;SDS011;6021;51.182;3.160;2022-07-09T12:50:38;1.93;;;1.70;;
11921;SDS011;6021;51.182;3.160;2022-07-09T12:53:07;1.80;;;1.30;;
11921;SDS011;6021;51.182;3.160;2022-07-09T12:55:35;2.63;;;1.43;;
11921;SDS011;6021;51.182;3.160;2022-07-09T12:58:03;2.80;;;1.40;;
11921;SDS011;6021;51.182;3.160;2022-07-09T13:00:31;4.17;;;1.70;;
11921;SDS011;6021;51.182;3.160;2022-07-09T13:03:00;5.93;;;1.63;;
11921;SDS011;6021;51.182;3.160;2022-07-09T13:05:28;2.73;;;1.23;;
11921;SDS011;6021;51.182;3.160;2022-07-09T13:07:57;2.63;;;1.50;;
11921;SDS011;6021;51.182;3.160;2022-07-09T13:10:25;2.90;;;1.50;;
11921;SDS011;6021;51.182;3.160;2022-07-09T13:12:53;3.20;;;1.70;;
11921;SDS011;6021;51.182;3.160;2022-07-09T13:15:22;3.80;;;1.70;;
11921;SDS011;6021;51.182;3.160;2022-07-09T13:17:50;4.60;;;2.10;;
11921;SDS011;6021;51.182;3.160;2022-07-09T13:20:20;3.30;;;1.80;;
11921;SDS011;6021;51.182;3.160;2022-07-09T13:22:49;3.13;;;1.80;;
11921;SDS011;6021;51.182;3.160;2022-07-09T13:25:18;7.10;;;2.00;;
11921;SDS011;6021;51.182;3.160;2022-07-09T13:27:46;5.27;;;2.00;;
11921;SDS011;6021;51.182;3.160;2022-07-09T13:30:14;4.43;;;1.93;;
11921;SDS011;6021;51.182;3.160;2022-07-09T13:32:44;4.20;;;1.67;;
11921;SDS011;6021;51.182;3.160;2022-07-09T13:35:13;3.40;;;1.70;;
11921;SDS011;6021;51.182;3.160;2022-07-09T13:37:41;3.47;;;1.70;;
11921;SDS011;6021;51.182;3.160;2022-07-09T13:40:10;3.13;;;1.70;;
11921;SDS011;6021;51.182;3.160;2022-07-09T13:42:38;5.13;;;1.80;;
11921;SDS011;6021;51.182;3.160;2022-07-09T13:45:07;4.00;;;1.77;;
11921;SDS011;6021;51.182;3.160;2022-07-09T13:47:36;5.03;;;1.80;;
11921;SDS011;6021;51.182;3.160;2022-07-09T13:50:04;4.90;;;1.93;;
11921;SDS011;6021;51.182;3.160;2022-07-09T13:52:33;4.60;;;1.87;;
11921;SDS011;6021;51.182;3.160;2022-07-09T13:55:01;3.83;;;1.83;;
11921;SDS011;6021;51.182;3.160;2022-07-09T13:57:30;4.37;;;1.97;;
11921;SDS011;6021;51.182;3.160;2022-07-09T13:59:58;3.83;;;1.90;;
11921;SDS011;6021;51.182;3.160;2022-07-09T14:02:27;4.33;;;1.67;;
11921;SDS011;6021;51.182;3.160;2022-07-09T14:04:56;4.20;;;1.83;;
11921;SDS011;6021;51.182;3.160;2022-07-09T14:07:25;3.23;;;1.97;;
11921;SDS011;6021;51.182;3.160;2022-07-09T14:10:14;4.60;;;1.70;;
11921;SDS011;6021;51.182;3.160;2022-07-09T14:12:42;5.37;;;1.90;;
11921;SDS011;6021;51.182;3.160;2022-07-09T14:15:10;7.57;;;2.23;;
11921;SDS011;6021;51.182;3.160;2022-07-09T14:17:39;4.07;;;2.00;;
11921;SDS011;6021;51.182;3.160;2022-07-09T14:20:10;6.00;;;2.03;;
11921;SDS011;6021;51.182;3.160;2022-07-09T14:22:39;7.00;;;2.10;;
11921;SDS011;6021;51.182;3.160;2022-07-09T14:25:08;5.70;;;2.00;;
11921;SDS011;6021;51.182;3.160;2022-07-09T14:27:36;7.20;;;2.50;;
11921;SDS011;6021;51.182;3.160;2022-07-09T14:30:05;6.47;;;2.30;;
11921;SDS011;6021;51.182;3.160;2022-07-09T14:32:33;6.70;;;2.10;;
11921;SDS011;6021;51.182;3.160;2022-07-09T14:35:02;6.80;;;1.90;;
11921;SDS011;6021;51.182;3.160;2022-07-09T14:37:31;6.43;;;2.10;;
11921;SDS011;6021;51.182;3.160;2022-07-09T14:39:59;7.20;;;2.07;;
11921;SDS011;6021;51.182;3.160;2022-07-09T14:42:28;6.63;;;2.07;;
11921;SDS011;6021;51.182;3.160;2022-07-09T14:44:56;4.80;;;2.07;;
11921;SDS011;6021;51.182;3.160;2022-07-09T14:47:24;5.40;;;1.90;;
11921;SDS011;6021;51.182;3.160;2022-07-09T14:49:53;4.30;;;2.23;;
11921;SDS011;6021;51.182;3.160;2022-07-09T14:52:21;6.87;;;2.30;;
11921;SDS011;6021;51.182;3.160;2022-07-09T14:54:50;5.23;;;2.20;;
11921;SDS011;6021;51.182;3.160;2022-07-09T14:57:18;5.80;;;2.10;;
11921;SDS011;6021;51.182;3.160;2022-07-09T14:59:47;8.03;;;2.30;;
11921;SDS011;6021;51.182;3.160;2022-07-09T15:02:15;8.10;;;2.30;;
11921;SDS011;6021;51.182;3.160;2022-07-09T15:04:44;6.63;;;2.27;;
11921;SDS011;6021;51.182;3.160;2022-07-09T15:07:14;8.30;;;2.43;;
11921;SDS011;6021;51.182;3.160;2022-07-09T15:09:43;8.07;;;2.40;;
11921;SDS011;6021;51.182;3.160;2022-07-09T15:12:11;5.63;;;2.30;;
11921;SDS011;6021;51.182;3.160;2022-07-09T15:14:39;4.73;;;2.30;;
11921;SDS011;6021;51.182;3.160;2022-07-09T15:17:08;6.47;;;2.37;;